Time;durP1;ratioP1;P1;durP2;ratioP2;P2;SDS_P1;SDS_P2;PMS_P1;PMS_P2;Temp;Humidity;BMP_temperature;BMP_pressure;BME280_temperature;BME280_humidity;BME280_pressure;Samples;Min_cycle;Max_cycle;Signal;HPM_P1;HPM_P2
2022/12/10 00:02:20;;;;;;;32.00;11.65;;;-1.50;99.90;;;;;;4962980;28;20091;-59
2022/12/10 00:04:46;;;;;;;33.17;13.98;;;-1.40;99.90;;;;;;4961801;28;20073;-57
2022/12/10 00:07:15;;;;;;;32.50;13.98;;;-1.40;99.90;;;;;;4972649;28;20046;-58
2022/12/10 00:09:42;;;;;;;28.40;12.98;;;-1.40;99.90;;;;;;4970410;28;20051;-58
2022/12/10 00:12:09;;;;;;;32.63;11.23;;;-1.40;99.90;;;;;;4965511;28;20499;-60
2022/12/10 00:14:35;;;;;;;21.58;9.88;;;-1.50;99.90;;;;;;4964863;28;20057;-58
2022/12/10 00:17:02;;;;;;;27.13;11.60;;;-1.50;99.90;;;;;;4970622;28;20467;-58
2022/12/10 00:19:35;;;;;;;19.00;9.68;;;-1.40;99.90;;;;;;4970203;28;20406;-61
2022/12/10 00:22:02;;;;;;;69.28;22.48;;;-1.30;99.90;;;;;;4970246;28;20089;-60
2022/12/10 00:24:29;;;;;;;60.13;23.55;;;-1.50;99.90;;;;;;4969143;28;20157;-58
2022/12/10 00:26:55;;;;;;;35.28;15.05;;;-1.50;99.90;;;;;;4968563;28;20236;-59
2022/12/10 00:29:22;;;;;;;33.33;12.35;;;-1.50;99.90;;;;;;4968882;28;20050;-58
2022/12/10 00:31:49;;;;;;;39.95;15.70;;;-1.40;99.90;;;;;;4968688;28;20047;-58
2022/12/10 00:34:16;;;;;;;39.28;16.10;;;-1.40;99.90;;;;;;4969242;28;20081;-58
2022/12/10 00:36:45;;;;;;;39.50;17.45;;;-1.40;99.90;;;;;;4969908;28;20788;-59
2022/12/10 00:39:13;;;;;;;47.83;17.33;;;-1.50;99.90;;;;;;4970229;28;20051;-60
2022/12/10 00:41:40;;;;;;;31.88;13.00;;;-1.40;99.90;;;;;;4970664;28;20130;-58
2022/12/10 00:44:06;;;;;;;37.95;12.50;;;-1.40;99.90;;;;;;4971220;28;20129;-58
2022/12/10 00:46:33;;;;;;;29.67;11.95;;;-1.50;99.90;;;;;;4972765;28;20061;-62
2022/12/10 00:49:00;;;;;;;41.55;13.98;;;-1.40;99.90;;;;;;4972009;28;20047;-59
2022/12/10 00:51:27;;;;;;;27.63;11.38;;;-1.50;99.90;;;;;;4972404;28;20051;-57
2022/12/10 00:53:55;;;;;;;31.73;13.52;;;-1.50;99.90;;;;;;4972055;28;20548;-53
2022/12/10 00:56:23;;;;;;;32.72;11.30;;;-1.50;99.90;;;;;;4962825;28;20145;-59
2022/12/10 00:58:51;;;;;;;24.85;11.35;;;-1.50;99.90;;;;;;4972300;28;20074;-60
2022/12/10 01:01:32;;;;;;;26.80;11.25;;;-1.50;99.90;;;;;;4972044;28;20153;-58
2022/12/10 01:04:01;;;;;;;33.92;11.20;;;-1.50;99.90;;;;;;4986895;28;20141;-58
2022/12/10 01:06:30;;;;;;;37.90;14.98;;;-1.50;99.90;;;;;;4971714;28;20070;-59
2022/12/10 01:08:58;;;;;;;27.17;11.82;;;-1.60;99.90;;;;;;4971054;28;20085;-58
2022/12/10 01:11:29;;;;;;;33.50;11.38;;;-1.50;99.90;;;;;;4971110;28;20129;-60
2022/12/10 01:13:56;;;;;;;20.17;10.85;;;-1.60;99.90;;;;;;4971968;28;20046;-59
2022/12/10 01:16:23;;;;;;;31.60;11.60;;;-1.50;99.90;;;;;;4970619;28;20415;-58
2022/12/10 01:18:54;;;;;;;32.15;11.38;;;-1.50;99.90;;;;;;4971751;28;20057;-60
2022/12/10 01:21:21;;;;;;;22.77;10.68;;;-1.60;99.90;;;;;;4970427;28;20085;-60
2022/12/10 01:23:49;;;;;;;28.27;10.57;;;-1.60;99.90;;;;;;4971647;28;20130;-59
2022/12/10 01:26:20;;;;;;;28.77;11.82;;;-1.60;99.90;;;;;;4969639;28;20561;-59
2022/12/10 01:28:47;;;;;;;26.85;10.38;;;-1.60;99.90;;;;;;4971834;28;20082;-59
2022/12/10 01:31:16;;;;;;;25.77;10.73;;;-1.60;99.90;;;;;;4971084;28;20528;-60
2022/12/10 01:33:43;;;;;;;30.50;9.95;;;-1.60;99.90;;;;;;4971573;28;20054;-59
2022/12/10 01:36:21;;;;;;;21.88;8.85;;;-1.70;99.90;;;;;;4971473;28;20592;-59
2022/12/10 01:38:48;;;;;;;24.55;10.32;;;-1.60;99.90;;;;;;4971403;28;20182;-61
2022/12/10 01:41:26;;;;;;;20.83;8.98;;;-1.70;99.90;;;;;;4969742;28;20051;-58
2022/12/10 01:44:01;;;;;;;22.40;8.23;;;-1.70;99.90;;;;;;4971346;28;20055;-59
2022/12/10 01:46:30;;;;;;;19.60;8.70;;;-1.70;99.90;;;;;;4970884;28;20086;-59
2022/12/10 01:48:57;;;;;;;20.50;8.68;;;-1.70;99.90;;;;;;4971243;28;20479;-57
2022/12/10 01:51:25;;;;;;;18.25;7.70;;;-1.80;99.90;;;;;;4624407;28;10000503;-62
2022/12/10 01:53:52;;;;;;;20.13;7.80;;;-1.80;99.90;;;;;;4968119;28;20101;-60
2022/12/10 01:56:19;;;;;;;19.75;10.07;;;-1.80;99.90;;;;;;4970196;28;20089;-58
2022/12/10 01:58:47;;;;;;;18.35;7.85;;;-1.80;99.90;;;;;;4971099;28;20143;-59
2022/12/10 02:01:46;;;;;;;16.17;7.70;;;-1.70;99.90;;;;;;4970883;28;20450;-59
2022/12/10 02:04:31;;;;;;;15.65;7.45;;;-1.80;99.90;;;;;;4969744;28;20082;-60
2022/12/10 02:07:01;;;;;;;20.17;8.48;;;-1.70;99.90;;;;;;4970640;28;20130;-58
2022/12/10 02:09:50;;;;;;;28.23;9.32;;;-1.80;99.90;;;;;;4969740;28;20070;-59
2022/12/10 02:12:18;;;;;;;19.08;8.65;;;-1.80;99.90;;;;;;4968911;28;20501;-60
2022/12/10 02:15:02;;;;;;;14.20;7.57;;;-1.80;99.90;;;;;;4969802;28;20138;-61
2022/12/10 02:17:42;;;;;;;16.65;7.93;;;-1.80;99.90;;;;;;4969532;28;20057;-58
2022/12/10 02:20:21;;;;;;;22.58;7.97;;;-1.90;99.90;;;;;;4971318;28;20158;-59
2022/12/10 02:22:52;;;;;;;17.95;7.57;;;-1.80;99.90;;;;;;4969859;28;20049;-62
2022/12/10 02:25:20;;;;;;;17.27;6.85;;;-1.90;99.90;;;;;;4969015;28;20074;-59
2022/12/10 02:28:21;;;;;;;25.25;7.70;;;-1.90;99.90;;;;;;4969959;28;20071;-61
2022/12/10 02:30:47;;;;;;;25.33;7.53;;;-1.90;99.90;;;;;;4969584;28;20054;-59
2022/12/10 02:33:14;;;;;;;20.30;9.10;;;-1.90;99.90;;;;;;4969488;28;20133;-60
2022/12/10 02:35:41;;;;;;;20.95;7.20;;;-1.80;99.90;;;;;;4972106;28;20529;-58
2022/12/10 02:38:14;;;;;;;16.70;7.22;;;-1.90;99.90;;;;;;4972575;28;20051;-60
2022/12/10 02:40:44;;;;;;;13.90;6.97;;;-1.90;99.90;;;;;;4974222;28;20082;-57
2022/12/10 02:43:12;;;;;;;19.63;8.70;;;-1.90;99.90;;;;;;4973702;28;20122;-59
2022/12/10 02:45:39;;;;;;;18.30;8.27;;;-1.90;99.90;;;;;;4973755;28;20050;-58
2022/12/10 02:48:06;;;;;;;22.60;7.55;;;-1.70;99.90;;;;;;4972026;28;20049;-60
2022/12/10 02:50:33;;;;;;;15.25;8.00;;;-2.00;99.90;;;;;;4969535;28;20137;-60
2022/12/10 02:53:00;;;;;;;14.45;6.70;;;-2.00;99.90;;;;;;4969121;28;20501;-60
2022/12/10 02:55:26;;;;;;;22.88;8.10;;;-2.00;99.90;;;;;;4968746;28;20074;-60
2022/12/10 02:58:21;;;;;;;18.17;6.97;;;-2.00;99.90;;;;;;4969590;28;20487;-60
2022/12/10 03:00:53;;;;;;;17.02;7.28;;;-2.00;99.90;;;;;;4958147;28;20093;-60
2022/12/10 03:03:42;;;;;;;24.63;7.03;;;-2.00;99.90;;;;;;4969134;28;20051;-59
2022/12/10 03:06:22;;;;;;;14.55;7.25;;;-2.00;99.90;;;;;;4970207;28;20489;-60
2022/12/10 03:08:51;;;;;;;17.40;7.30;;;-2.10;99.90;;;;;;4969943;28;20053;-60
2022/12/10 03:11:22;;;;;;;16.88;6.57;;;-2.10;99.90;;;;;;4968757;28;20047;-60
2022/12/10 03:14:02;;;;;;;17.73;7.43;;;-2.10;99.90;;;;;;4968507;28;20505;-61
2022/12/10 03:16:34;;;;;;;16.15;7.35;;;-2.20;99.90;;;;;;4969527;28;20564;-60
2022/12/10 03:19:03;;;;;;;22.70;8.70;;;-2.20;99.90;;;;;;4968860;28;20083;-60
2022/12/10 03:21:31;;;;;;;18.95;8.02;;;-2.20;99.90;;;;;;4968802;28;20085;-60
2022/12/10 03:23:58;;;;;;;13.55;7.32;;;-2.20;99.90;;;;;;4969650;28;20126;-60
2022/12/10 03:26:24;;;;;;;14.45;7.05;;;-2.20;99.90;;;;;;4960377;28;20108;-57
2022/12/10 03:28:58;;;;;;;15.85;6.57;;;-2.20;99.90;;;;;;4969043;28;20700;-61
2022/12/10 03:31:25;;;;;;;16.90;7.25;;;-2.20;99.90;;;;;;4968850;28;20074;-62
2022/12/10 03:33:52;;;;;;;17.67;8.02;;;-2.20;99.90;;;;;;4968918;28;20133;-62
2022/12/10 03:36:19;;;;;;;15.63;6.93;;;-2.20;99.90;;;;;;4968431;28;20524;-60
2022/12/10 03:38:46;;;;;;;19.98;8.30;;;-2.20;99.90;;;;;;4968629;28;20510;-61
2022/12/10 03:41:12;;;;;;;17.20;7.68;;;-2.10;99.90;;;;;;4969501;28;20050;-61
2022/12/10 03:43:56;;;;;;;18.02;7.72;;;-2.20;99.90;;;;;;4955398;28;20106;-61
2022/12/10 03:46:23;;;;;;;17.40;7.83;;;-2.20;99.90;;;;;;4965766;28;20456;-59
2022/12/10 03:48:50;;;;;;;14.70;9.18;;;-2.30;99.90;;;;;;4968441;28;20434;-62
2022/12/10 03:51:18;;;;;;;17.60;8.00;;;-2.30;99.90;;;;;;4983884;28;20093;-60
2022/12/10 03:53:44;;;;;;;16.17;9.18;;;-2.30;99.90;;;;;;4969144;28;20089;-63
2022/12/10 03:56:11;;;;;;;16.15;7.20;;;-2.30;99.90;;;;;;4967165;28;20082;-63
2022/12/10 03:58:38;;;;;;;15.20;7.75;;;-2.30;99.90;;;;;;4969602;28;20133;-59
2022/12/10 04:01:05;;;;;;;15.20;7.05;;;-2.20;99.90;;;;;;4969564;28;20051;-67
2022/12/10 04:03:35;;;;;;;14.60;7.28;;;-2.30;99.90;;;;;;4982399;28;20446;-60
2022/12/10 04:06:07;;;;;;;19.98;7.35;;;-2.30;99.90;;;;;;4963242;28;20082;-61
2022/12/10 04:08:34;;;;;;;16.88;7.38;;;-2.30;99.90;;;;;;4968727;28;20059;-60
2022/12/10 04:11:04;;;;;;;23.08;8.07;;;-2.30;99.90;;;;;;4968341;28;20127;-59
2022/12/10 04:16:26;;;;;;;14.68;7.55;;;-2.30;99.90;;;;;;4969072;28;20055;-62
2022/12/10 04:18:58;;;;;;;18.88;8.68;;;-2.30;99.90;;;;;;4969100;28;20046;-61
2022/12/10 04:27:00;;;;;;;19.15;7.70;;;-2.30;99.90;;;;;;4973032;28;20074;-60
2022/12/10 04:29:28;;;;;;;15.13;7.68;;;-2.30;99.90;;;;;;4973096;28;20055;-60
2022/12/10 04:31:55;;;;;;;15.70;7.05;;;-2.40;99.90;;;;;;4973386;28;20054;-61
2022/12/10 04:34:23;;;;;;;15.77;7.13;;;-2.30;99.90;;;;;;4972599;28;20047;-60
2022/12/10 04:36:50;;;;;;;18.65;7.55;;;-2.30;99.90;;;;;;4971764;28;20086;-60
2022/12/10 04:39:17;;;;;;;18.23;7.32;;;-2.20;99.90;;;;;;4968793;28;20043;-60
2022/12/10 04:41:48;;;;;;;15.25;7.93;;;-2.40;99.90;;;;;;4958705;28;20529;-60
2022/12/10 04:44:18;;;;;;;19.77;7.80;;;-2.30;99.90;;;;;;4968700;28;20051;-60
2022/12/10 04:46:45;;;;;;;22.38;8.95;;;-2.40;99.90;;;;;;4971653;28;20139;-59
2022/12/10 04:49:11;;;;;;;16.38;7.35;;;-2.30;99.90;;;;;;4971687;28;20101;-60
2022/12/10 04:51:38;;;;;;;20.50;6.28;;;-2.30;99.90;;;;;;4971786;28;20145;-60
2022/12/10 04:54:05;;;;;;;14.23;7.45;;;-2.30;99.90;;;;;;4970832;28;20081;-61
2022/12/10 04:56:32;;;;;;;14.48;7.18;;;-2.30;99.90;;;;;;4971394;28;20082;-60
2022/12/10 04:58:59;;;;;;;18.20;7.88;;;-2.30;99.90;;;;;;4971109;28;20101;-59
2022/12/10 05:01:27;;;;;;;16.45;6.18;;;-2.30;99.90;;;;;;4971466;28;20078;-60
2022/12/10 05:03:54;;;;;;;14.05;7.25;;;-2.10;99.90;;;;;;4971144;28;20222;-60
2022/12/10 05:06:20;;;;;;;17.00;7.28;;;-2.10;99.90;;;;;;4971045;28;20058;-60
2022/12/10 05:08:47;;;;;;;14.25;6.97;;;-2.30;99.90;;;;;;4971013;28;20047;-61
2022/12/10 05:11:18;;;;;;;16.88;7.47;;;-2.30;99.90;;;;;;4970971;28;20094;-61
2022/12/10 05:13:45;;;;;;;12.52;6.50;;;-2.30;99.90;;;;;;4970876;28;20502;-60
2022/12/10 05:16:14;;;;;;;14.60;5.97;;;-2.30;99.90;;;;;;4971362;28;20047;-60
2022/12/10 05:18:40;;;;;;;19.50;7.80;;;-2.40;99.90;;;;;;4970703;28;20490;-60
2022/12/10 05:21:10;;;;;;;15.25;6.85;;;-2.40;99.90;;;;;;4970007;28;20082;-61
2022/12/10 05:23:37;;;;;;;13.85;6.82;;;-2.40;99.90;;;;;;4971014;28;20393;-59
2022/12/10 05:26:05;;;;;;;16.92;7.85;;;-2.40;99.90;;;;;;4962793;28;20182;-60
2022/12/10 05:28:37;;;;;;;22.20;7.90;;;-2.40;99.90;;;;;;4970847;28;20125;-60
2022/12/10 05:31:04;;;;;;;23.85;9.60;;;-2.50;99.90;;;;;;4970012;28;20078;-61
2022/12/10 05:33:31;;;;;;;19.13;7.50;;;-2.40;99.90;;;;;;4970347;28;20058;-60
2022/12/10 05:35:59;;;;;;;17.48;7.22;;;-2.40;99.90;;;;;;4970711;28;20137;-60
2022/12/10 05:38:26;;;;;;;16.98;6.72;;;-2.40;99.90;;;;;;4985325;28;20178;-64
2022/12/10 05:40:53;;;;;;;23.10;7.30;;;-2.50;99.90;;;;;;4969815;28;20105;-60
2022/12/10 05:43:22;;;;;;;15.05;7.85;;;-2.40;99.90;;;;;;4970937;28;20051;-60
2022/12/10 05:45:49;;;;;;;15.98;6.22;;;-2.50;99.90;;;;;;4969998;28;20138;-59
2022/12/10 05:48:16;;;;;;;13.60;7.32;;;-2.40;99.90;;;;;;4985630;28;20053;-60
2022/12/10 05:50:43;;;;;;;13.32;6.90;;;-2.50;99.90;;;;;;4970038;28;20078;-60
2022/12/10 05:53:13;;;;;;;18.35;6.10;;;-2.50;99.90;;;;;;4970647;28;20466;-61
2022/12/10 05:55:40;;;;;;;17.73;7.82;;;-2.50;99.90;;;;;;4968886;28;20150;-61
2022/12/10 05:58:06;;;;;;;16.92;7.05;;;-2.50;99.90;;;;;;4970414;28;20043;-61
2022/12/10 06:00:33;;;;;;;14.10;5.90;;;-2.50;99.90;;;;;;4969880;28;20501;-61
2022/12/10 06:03:00;;;;;;;19.20;7.65;;;-2.50;99.90;;;;;;4969992;28;20126;-62
2022/12/10 06:05:27;;;;;;;18.20;7.85;;;-2.50;99.90;;;;;;4963036;28;20094;-59
2022/12/10 06:07:54;;;;;;;13.75;6.25;;;-2.50;99.90;;;;;;4970292;28;20042;-60
2022/12/10 06:10:20;;;;;;;18.00;9.48;;;-2.50;99.90;;;;;;4969959;28;20046;-59
2022/12/10 06:12:47;;;;;;;19.90;7.25;;;-2.50;99.90;;;;;;4969319;28;20079;-58
2022/12/10 06:15:14;;;;;;;16.27;7.22;;;-2.60;99.90;;;;;;4969970;28;20055;-61
2022/12/10 06:17:41;;;;;;;17.65;6.75;;;-2.60;99.90;;;;;;4970063;28;20130;-60
2022/12/10 06:20:08;;;;;;;12.23;7.75;;;-2.60;99.90;;;;;;4969551;28;20165;-60
2022/12/10 06:22:36;;;;;;;16.05;6.35;;;-2.60;99.90;;;;;;4969415;28;20051;-60
2022/12/10 06:25:03;;;;;;;12.88;6.03;;;-2.60;99.90;;;;;;4969230;28;20505;-58
2022/12/10 06:27:31;;;;;;;16.40;7.53;;;-2.60;99.90;;;;;;4969657;28;20086;-61
2022/12/10 06:29:57;;;;;;;11.05;6.53;;;-2.60;99.90;;;;;;4969759;28;20134;-59
2022/12/10 06:32:24;;;;;;;16.65;6.60;;;-2.50;99.90;;;;;;4969558;28;20485;-60
2022/12/10 06:34:51;;;;;;;14.02;5.90;;;-2.50;99.90;;;;;;4968329;28;20085;-60
2022/12/10 06:37:18;;;;;;;17.85;7.07;;;-2.50;99.90;;;;;;4969206;28;20050;-61
2022/12/10 06:39:45;;;;;;;18.38;5.95;;;-2.60;99.90;;;;;;4968895;28;20086;-65
2022/12/10 06:42:12;;;;;;;19.48;6.88;;;-2.50;99.90;;;;;;4968212;28;20100;-60
2022/12/10 06:44:38;;;;;;;22.48;7.78;;;-2.60;99.90;;;;;;4965797;28;20054;-59
2022/12/10 06:47:05;;;;;;;15.02;6.43;;;-2.60;99.90;;;;;;4963667;28;20077;-60
2022/12/10 06:49:32;;;;;;;11.80;6.63;;;-2.20;99.90;;;;;;4969855;28;20134;-60
2022/12/10 06:51:59;;;;;;;12.82;6.55;;;-2.60;99.90;;;;;;4969957;28;20070;-60
2022/12/10 06:54:25;;;;;;;18.40;7.22;;;-2.60;99.90;;;;;;4969373;28;20499;-62
2022/12/10 06:56:52;;;;;;;23.40;8.55;;;-2.50;99.90;;;;;;4968951;28;20046;-61
2022/12/10 06:59:20;;;;;;;17.60;7.75;;;-2.60;99.90;;;;;;4969249;28;20128;-59
2022/12/10 07:01:47;;;;;;;18.00;8.25;;;-2.60;99.90;;;;;;4967620;28;20078;-59
2022/12/10 07:04:14;;;;;;;16.35;7.47;;;-2.60;99.90;;;;;;4963070;28;20053;-60
2022/12/10 07:06:40;;;;;;;12.90;6.85;;;-2.70;99.90;;;;;;4959933;28;20138;-60
2022/12/10 07:09:07;;;;;;;15.48;7.38;;;-2.70;99.90;;;;;;4960054;28;20081;-59
2022/12/10 07:11:34;;;;;;;21.80;7.22;;;-2.70;99.90;;;;;;4958726;28;20070;-61
2022/12/10 07:14:01;;;;;;;12.13;7.53;;;-2.70;99.90;;;;;;4960611;28;20130;-61
2022/12/10 07:16:29;;;;;;;20.75;6.90;;;-2.70;99.90;;;;;;4959710;28;20056;-58
2022/12/10 07:18:56;;;;;;;17.17;6.95;;;-2.50;99.90;;;;;;4960500;28;20038;-61
2022/12/10 07:21:25;;;;;;;15.70;8.43;;;-2.70;99.90;;;;;;4958720;28;20449;-63
2022/12/10 07:23:57;;;;;;;17.80;7.30;;;-2.80;99.90;;;;;;4618737;28;10000261;-60
2022/12/10 07:26:25;;;;;;;15.20;7.20;;;-2.80;99.90;;;;;;4956535;28;20051;-60
2022/12/10 07:28:52;;;;;;;18.77;7.97;;;-2.80;99.90;;;;;;4963659;28;20046;-62
2022/12/10 07:31:20;;;;;;;18.20;7.13;;;-2.80;99.90;;;;;;4961424;28;20051;-61
2022/12/10 07:33:48;;;;;;;12.77;7.38;;;-2.80;99.90;;;;;;4963569;28;20094;-61
2022/12/10 07:36:15;;;;;;;20.55;7.43;;;-2.80;99.90;;;;;;4969949;28;20479;-57
2022/12/10 07:38:46;;;;;;;19.45;8.77;;;-2.80;99.90;;;;;;4970345;28;20055;-64
2022/12/10 07:41:13;;;;;;;12.55;6.78;;;-2.80;99.90;;;;;;4968281;28;20058;-58
2022/12/10 07:43:40;;;;;;;18.90;6.60;;;-2.70;99.90;;;;;;4966899;28;20160;-58
2022/12/10 07:46:22;;;;;;;16.38;8.32;;;-2.70;99.90;;;;;;4966668;28;20082;-59
2022/12/10 07:48:49;;;;;;;14.23;7.88;;;-2.80;99.90;;;;;;4965543;28;20670;-56
2022/12/10 07:51:16;;;;;;;20.77;9.02;;;-2.70;99.90;;;;;;4960609;28;20050;-58
2022/12/10 07:53:43;;;;;;;23.65;8.35;;;-2.70;99.90;;;;;;4958497;28;20134;-59
2022/12/10 07:56:10;;;;;;;14.38;7.28;;;-2.70;99.90;;;;;;4964656;28;20141;-59
2022/12/10 07:58:37;;;;;;;18.10;8.13;;;-2.80;99.90;;;;;;4970136;28;20078;-58
2022/12/10 08:01:11;;;;;;;24.58;9.05;;;-2.80;99.90;;;;;;4970018;28;20161;-58
2022/12/10 08:03:38;;;;;;;19.15;7.80;;;-2.80;99.90;;;;;;4969173;28;20406;-57
2022/12/10 08:06:07;;;;;;;20.27;8.48;;;-2.80;99.90;;;;;;4969519;28;20628;-59
2022/12/10 08:08:34;;;;;;;15.93;8.02;;;-2.80;99.90;;;;;;4970012;28;20138;-59
2022/12/10 08:11:01;;;;;;;18.33;8.32;;;-2.80;99.90;;;;;;4979616;28;20051;-60
2022/12/10 08:13:28;;;;;;;19.90;8.68;;;-2.70;99.90;;;;;;4968664;28;20082;-58
2022/12/10 08:16:03;;;;;;;19.33;8.95;;;-2.70;99.90;;;;;;4969290;28;20129;-59
2022/12/10 08:18:30;;;;;;;17.85;8.77;;;-2.60;99.90;;;;;;4970201;28;20054;-60
2022/12/10 08:20:57;;;;;;;15.13;7.75;;;-2.70;99.90;;;;;;4969771;28;20138;-60
2022/12/10 08:23:26;;;;;;;16.17;7.28;;;-2.60;99.90;;;;;;4959332;28;20154;-60
2022/12/10 08:25:53;;;;;;;20.05;8.68;;;-2.60;99.90;;;;;;4968263;28;20523;-60
2022/12/10 08:28:20;;;;;;;17.77;8.77;;;-2.40;99.90;;;;;;4952798;28;20058;-61
2022/12/10 08:30:47;;;;;;;20.60;8.85;;;-2.50;99.90;;;;;;4965100;28;20050;-62
2022/12/10 08:33:14;;;;;;;15.43;8.35;;;-2.50;99.90;;;;;;4969362;28;20074;-58
2022/12/10 08:35:41;;;;;;;19.35;9.73;;;-2.40;99.90;;;;;;4967730;28;20078;-59
2022/12/10 08:38:08;;;;;;;23.35;8.38;;;-2.40;99.90;;;;;;4960999;28;20134;-60
2022/12/10 08:40:39;;;;;;;292.83;40.20;;;-2.30;99.90;;;;;;4960303;28;20050;-59
2022/12/10 08:43:06;;;;;;;52.92;12.18;;;-2.30;99.90;;;;;;4968409;28;20082;-59
2022/12/10 08:45:33;;;;;;;25.08;11.20;;;-1.80;99.90;;;;;;4969420;28;20074;-59
2022/12/10 08:48:00;;;;;;;154.02;21.92;;;-2.30;99.90;;;;;;4969816;28;20058;-60
2022/12/10 08:50:28;;;;;;;76.47;14.15;;;-2.30;99.90;;;;;;4968455;28;20051;-60
2022/12/10 08:52:54;;;;;;;69.75;12.82;;;-2.20;99.90;;;;;;4962522;28;20054;-60
2022/12/10 08:55:21;;;;;;;48.50;11.90;;;-2.30;99.90;;;;;;4968747;28;20050;-58
2022/12/10 08:57:51;;;;;;;30.15;10.90;;;-2.20;99.90;;;;;;4966966;28;20070;-60
2022/12/10 09:00:21;;;;;;;23.60;9.65;;;-2.10;99.90;;;;;;4963667;28;20047;-60
2022/12/10 09:02:48;;;;;;;27.30;10.93;;;-2.10;99.90;;;;;;4958173;28;20503;-60
2022/12/10 09:05:15;;;;;;;18.88;9.73;;;-2.00;99.90;;;;;;4957710;28;20083;-60
2022/12/10 09:07:42;;;;;;;26.08;10.75;;;-1.90;99.90;;;;;;4963564;28;20442;-61
2022/12/10 09:10:12;;;;;;;22.77;10.13;;;-1.80;99.90;;;;;;4958123;28;20489;-61
2022/12/10 09:12:39;;;;;;;20.05;9.32;;;-1.80;99.90;;;;;;4961154;28;20049;-59
2022/12/10 09:15:08;;;;;;;21.88;10.35;;;-1.70;99.90;;;;;;4960242;28;20050;-61
2022/12/10 09:17:35;;;;;;;40.35;10.13;;;-1.60;99.90;;;;;;4968556;28;20070;-60
2022/12/10 09:20:02;;;;;;;24.75;10.15;;;-1.60;99.90;;;;;;4968705;28;20050;-60
2022/12/10 09:22:29;;;;;;;34.47;11.07;;;-1.50;99.90;;;;;;4968088;28;20643;-59
2022/12/10 09:24:56;;;;;;;34.55;10.88;;;-1.40;99.90;;;;;;4983038;28;20117;-61
2022/12/10 09:27:23;;;;;;;28.88;12.38;;;-1.30;99.90;;;;;;4960771;28;20137;-58
2022/12/10 09:29:50;;;;;;;33.63;11.00;;;-1.30;99.90;;;;;;4960616;28;20066;-61
2022/12/10 09:32:17;;;;;;;35.38;12.48;;;-1.10;99.90;;;;;;4961455;28;20109;-60
2022/12/10 09:34:44;;;;;;;25.08;10.75;;;-1.10;99.90;;;;;;4965221;28;20046;-61
2022/12/10 09:37:11;;;;;;;44.10;10.15;;;-1.10;99.90;;;;;;4964718;28;20501;-62
2022/12/10 09:39:37;;;;;;;92.30;18.73;;;-1.00;99.90;;;;;;4968338;28;20504;-60
2022/12/10 09:42:13;;;;;;;41.67;12.27;;;-0.90;99.90;;;;;;4967951;28;20051;-60
2022/12/10 09:44:50;;;;;;;34.60;10.48;;;-0.80;99.90;;;;;;4968233;28;20502;-60
2022/12/10 09:47:17;;;;;;;24.52;10.32;;;-0.80;99.90;;;;;;4966276;28;20145;-61
2022/12/10 09:49:55;;;;;;;23.63;9.25;;;-0.70;99.90;;;;;;4967984;28;20438;-61
2022/12/10 09:52:24;;;;;;;26.75;9.35;;;-0.60;99.90;;;;;;4951817;28;20565;-60
2022/12/10 09:54:59;;;;;;;22.42;10.07;;;-0.50;99.90;;;;;;4967043;28;20138;-60
2022/12/10 09:57:35;;;;;;;45.92;12.10;;;-0.40;99.90;;;;;;4967570;28;20053;-60
2022/12/10 10:00:22;;;;;;;21.05;10.18;;;-0.30;99.90;;;;;;4960621;28;20137;-59
2022/12/10 10:02:50;;;;;;;21.08;9.82;;;-0.20;99.90;;;;;;4966641;28;20138;-57
2022/12/10 10:05:22;;;;;;;23.02;10.32;;;-0.10;99.90;;;;;;4967064;28;20534;-63
2022/12/10 10:07:54;;;;;;;21.27;10.40;;;0.00;99.90;;;;;;4965697;28;20085;-58
2022/12/10 10:10:26;;;;;;;17.77;9.25;;;0.00;99.90;;;;;;4967729;28;20142;-58
2022/12/10 10:13:00;;;;;;;18.23;9.75;;;0.10;99.90;;;;;;4966940;28;20046;-60
2022/12/10 10:15:31;;;;;;;20.13;8.48;;;0.20;99.90;;;;;;4956274;28;20057;-62
2022/12/10 10:18:18;;;;;;;21.77;8.75;;;0.40;99.90;;;;;;4967086;28;20054;-58
2022/12/10 10:20:44;;;;;;;25.90;7.85;;;0.50;99.90;;;;;;4956649;28;20077;-58
2022/12/10 10:23:14;;;;;;;17.52;7.38;;;0.60;99.90;;;;;;4962043;28;20057;-60
2022/12/10 10:25:42;;;;;;;15.60;7.63;;;0.70;99.90;;;;;;4963374;28;20079;-60
2022/12/10 10:28:13;;;;;;;17.27;7.90;;;0.80;99.90;;;;;;4966921;28;20156;-60
2022/12/10 10:30:44;;;;;;;18.80;7.78;;;0.90;99.90;;;;;;4962317;28;20189;-59
2022/12/10 10:33:12;;;;;;;18.35;8.20;;;0.90;99.90;;;;;;4952185;28;20074;-60
2022/12/10 10:35:47;;;;;;;15.18;6.47;;;1.00;99.90;;;;;;4966502;28;20085;-59
2022/12/10 10:38:23;;;;;;;15.48;6.57;;;1.10;99.90;;;;;;4967418;28;20051;-61
2022/12/10 10:40:52;;;;;;;9.43;4.90;;;1.20;99.90;;;;;;4965999;28;20478;-58
2022/12/10 10:43:31;;;;;;;17.20;6.32;;;1.20;99.90;;;;;;4965978;28;20055;-61
2022/12/10 10:46:14;;;;;;;13.90;5.70;;;1.30;99.90;;;;;;4966737;28;20047;-61
2022/12/10 10:48:41;;;;;;;13.65;6.93;;;1.40;99.90;;;;;;4958188;28;20558;-62
2022/12/10 10:51:23;;;;;;;16.23;6.78;;;1.40;99.90;;;;;;4959265;28;20050;-61
2022/12/10 10:53:55;;;;;;;12.82;5.70;;;1.60;99.90;;;;;;4958461;28;20078;-61
2022/12/10 10:56:31;;;;;;;8.10;4.90;;;1.70;99.90;;;;;;4959111;28;20142;-60
2022/12/10 10:59:04;;;;;;;13.13;5.10;;;1.70;99.90;;;;;;4965520;28;20123;-61
2022/12/10 11:01:51;;;;;;;13.35;4.70;;;1.80;99.90;;;;;;4963626;28;20114;-60
2022/12/10 11:04:24;;;;;;;14.23;6.28;;;1.90;99.90;;;;;;4965445;28;20097;-60
2022/12/10 11:06:51;;;;;;;11.90;5.45;;;2.00;99.90;;;;;;4962348;28;20057;-59
2022/12/10 11:09:25;;;;;;;6.82;4.28;;;2.00;99.90;;;;;;4946071;28;20130;-61
2022/12/10 11:11:57;;;;;;;12.85;4.95;;;2.10;99.90;;;;;;4958739;28;20047;-60
2022/12/10 11:14:31;;;;;;;11.45;4.60;;;2.10;99.90;;;;;;4965188;28;20137;-61
2022/12/10 11:17:14;;;;;;;10.13;4.25;;;2.20;99.90;;;;;;4961339;28;20055;-60
2022/12/10 11:19:55;;;;;;;6.47;3.75;;;2.20;99.90;;;;;;4952615;28;20120;-60
2022/12/10 11:22:28;;;;;;;9.20;4.65;;;2.30;99.90;;;;;;4956850;28;20059;-59
2022/12/10 11:24:56;;;;;;;8.30;4.40;;;2.30;99.90;;;;;;4956435;28;20135;-59
2022/12/10 11:27:45;;;;;;;11.23;4.32;;;2.40;99.90;;;;;;4958588;28;20046;-61
2022/12/10 11:30:22;;;;;;;7.45;3.40;;;2.40;99.90;;;;;;4964219;28;20063;-60
2022/12/10 11:33:05;;;;;;;15.20;6.60;;;2.40;99.90;;;;;;4963733;28;20507;-60
2022/12/10 11:35:53;;;;;;;8.32;3.63;;;2.40;99.90;;;;;;4963566;28;20057;-60
2022/12/10 11:38:28;;;;;;;6.97;4.15;;;2.50;99.90;;;;;;4964605;28;20174;-61
2022/12/10 11:41:01;;;;;;;11.07;4.78;;;2.50;99.90;;;;;;4962956;28;20054;-61
2022/12/10 11:43:35;;;;;;;9.75;3.55;;;2.50;99.90;;;;;;4969895;28;20082;-60
2022/12/10 11:46:12;;;;;;;8.70;4.07;;;2.60;99.90;;;;;;4968563;28;20137;-61
2022/12/10 11:49:27;;;;;;;8.45;3.70;;;2.60;99.90;;;;;;4964649;28;20050;-60
2022/12/10 11:52:02;;;;;;;7.85;3.45;;;2.70;99.90;;;;;;4952811;28;20050;-61
2022/12/10 11:54:45;;;;;;;6.68;3.28;;;2.70;99.90;;;;;;4972297;28;20043;-61
2022/12/10 11:57:37;;;;;;;6.45;3.25;;;2.80;99.90;;;;;;4971415;28;20140;-60
2022/12/10 12:00:20;;;;;;;7.55;4.15;;;2.80;99.90;;;;;;4972001;28;20141;-61
2022/12/10 12:03:32;;;;;;;10.82;4.53;;;2.90;99.90;;;;;;4971128;28;20133;-62
2022/12/10 12:06:40;;;;;;;7.80;4.32;;;2.90;99.90;;;;;;4963314;28;20051;-61
2022/12/10 12:09:37;;;;;;;6.47;2.75;;;3.00;99.90;;;;;;4959426;28;20090;-58
2022/12/10 12:12:23;;;;;;;8.27;3.42;;;3.00;99.90;;;;;;4963562;28;20481;-59
2022/12/10 12:15:13;;;;;;;8.73;4.07;;;3.00;99.90;;;;;;4963005;28;20150;-61
2022/12/10 12:17:42;;;;;;;10.10;3.38;;;3.00;99.90;;;;;;4967925;28;20098;-60
2022/12/10 12:20:17;;;;;;;7.05;3.45;;;3.10;99.90;;;;;;4963596;28;20176;-60
2022/12/10 12:22:47;;;;;;;8.88;4.03;;;3.10;99.90;;;;;;4963421;28;20093;-61
2022/12/10 12:25:22;;;;;;;7.53;3.90;;;3.20;99.90;;;;;;4964597;28;20049;-61
2022/12/10 12:27:52;;;;;;;8.27;3.40;;;3.20;99.90;;;;;;4970504;28;20141;-61
2022/12/10 12:30:20;;;;;;;9.27;3.85;;;3.20;99.90;;;;;;4964363;28;20512;-61
2022/12/10 12:32:58;;;;;;;8.43;3.63;;;3.20;99.90;;;;;;4966872;28;20089;-60
2022/12/10 12:35:44;;;;;;;5.65;3.40;;;3.30;99.90;;;;;;4971684;28;20057;-60
2022/12/10 12:38:41;;;;;;;8.45;4.22;;;3.30;99.90;;;;;;4971964;28;20097;-60
2022/12/10 12:41:26;;;;;;;11.27;4.32;;;3.40;99.90;;;;;;4957782;28;20059;-60
2022/12/10 12:43:59;;;;;;;8.45;3.17;;;3.40;99.90;;;;;;4962642;28;20082;-61
2022/12/10 12:46:43;;;;;;;6.93;3.22;;;3.40;99.90;;;;;;4969683;28;20055;-62
2022/12/10 12:49:10;;;;;;;;;;;3.50;99.90;;;;;;4969244;28;20051;-60
2022/12/10 12:51:45;;;;;;;5.45;2.63;;;4.00;99.90;;;;;;4969798;28;20020;-62
2022/12/10 12:54:11;;;;;;;;;;;3.50;99.90;;;;;;4968605;28;20605;-60
2022/12/10 12:56:59;;;;;;;7.68;2.97;;;3.50;99.90;;;;;;4969327;28;20008;-59
2022/12/10 12:59:35;;;;;;;4.95;3.05;;;3.60;99.90;;;;;;4965370;28;20051;-60
2022/12/10 13:02:23;;;;;;;10.73;3.58;;;3.60;99.90;;;;;;4967708;28;20593;-61
2022/12/10 13:04:50;;;;;;;5.88;2.92;;;3.60;99.90;;;;;;4961888;28;20043;-60
2022/12/10 13:07:21;;;;;;;6.85;3.03;;;3.70;99.90;;;;;;4958323;28;20502;-59